Historyczne dane pomiarowe

Dodano dane terminowe – wersja testowa.

Dane z okresu 1951-2019

Wersja bazy: 1.34 [2019-03-16, lista zmian], aktualizacja planowana na 2019-04-15

Dane meteo z obszaru Polski uzyskane na podstawie danych udostępnionych przez Instytut Meteorologii i Gospodarki Wodnej – Państwowy Instytut Badawczy.

 

Wybierz Datę:    

       

TemperaturaWilgotnośćWiatrCiśnienieOpadyŚniegCzas trwania zjawisk
 Stacja t tx tn tng RH VA  wxwx mslp ppp RRR   cm mm wxwxwxwxwxwxwx
1994-08-14 13.0 16.4 9.9 9.7 83.5- 5.7 5.7---- 3.4------------
1994-08-13 17.7 22.9 13.8 14.4 84.8- 7.3 7.0---- 3.2------------
1994-08-12 20.2 25.5 16.4 16.0 75.5- 8.0 2.7---- 0.0------------
1994-08-11 20.1 26.0 13.2 9.3 70.5- 7.3 1.3---- 0.0------------
1994-08-10 20.3 26.4 12.5 10.5 76.3- 6.3 0.3---- 0.0------------
1994-08-09 19.2 22.3 16.7 15.0 93.3- 8.0 2.0---- 0.2------------
1994-08-08 20.9 25.9 17.6 16.0 81.8- 7.0 1.3---- 1.9------------
1994-08-07 22.4 27.6 17.2 13.5 71.5- 7.7 2.0---- 1.2------------
1994-08-06 25.8 34.6 19.2 15.3 63.5- 6.3 2.3---- 0.1------------
1994-08-05 26.3 32.3 18.5 14.7 67.3- 5.3 1.3---- 0.0------------
1994-08-04 23.3 29.3 16.5 16.5 75.5- 5.3 2.3---- 0.0------------
1994-08-03 24.7 30.8 20.5 19.5 77.5- 7.0 1.7---- 0.2------------
1994-08-02 27.9 35.0 17.8 17.1 62.5- 5.7 2.0---- 0.0------------
1994-08-01 27.4 35.6 18.0 15.8 60.3- 6.7 2.3---- 0.0------------
1994-07-31 27.2 35.7 16.0 13.5 57.3- 5.7 2.0---- 0.0------------
1994-07-30 28.0 36.0 16.0 12.3 52.5- 4.0 1.0---- 0.0------------
1994-07-29 27.2 35.5 16.0 12.5 54.5- 2.7 1.7---- 0.0------------
1994-07-28 26.7 34.6 16.2 11.8 60.5- 4.0 1.3---- 0.0------------
1994-07-27 25.8 34.5 16.6 13.0 57.5- 3.7 0.7---- 0.0------------
1994-07-26 25.9 33.5 17.8 10.5 55.0- 3.3 0.7---- 0.0------------
1994-07-25 25.1 32.5 13.6 9.8 56.0- 2.3 1.3---- 0.0------------
1994-07-24 24.1 31.0 12.1 9.0 53.8- 2.0 1.0---- 0.0------------
1994-07-23 21.5 29.7 11.4 7.8 62.0- 2.3 1.0---- 0.0------------
1994-07-22 21.3 28.0 12.0 7.6 63.0- 2.3 1.7---- 0.0------------
1994-07-21 21.0 29.0 10.3 6.1 60.3- 2.7 1.0---- 0.0------------
1994-07-20 18.6 25.0 9.3 4.7 69.0- 3.7 1.7---- 0.0------------
1994-07-19 18.4 23.5 10.4 6.7 63.5- 3.3 2.7---- 0.0------------
1994-07-18 19.7 24.8 15.4 14.2 69.8- 4.7 2.7---- 0.0------------
1994-07-17 22.3 27.3 18.0 16.5 74.3- 6.3 0.3---- 0.8------------
1994-07-16 23.9 29.5 14.9 12.5 70.5- 4.3 1.0---- 0.0------------
1994-07-15 25.0 31.0 17.5 14.0 72.3- 3.3 1.0---- 0.0------------
1994-07-14 24.5 32.0 16.5 13.6 71.8- 3.7 1.3---- 0.0------------
1994-07-13 24.5 30.0 15.0 11.5 64.8- 2.3 1.3---- 0.0------------
1994-07-12 23.2 29.0 14.5 11.7 70.0- 2.0 1.0---- 0.0------------
1994-07-11 21.5 28.5 13.5 8.6 73.3- 3.0 2.0---- 0.0------------
1994-07-10 18.8 26.0 12.1 11.5 84.5- 5.7 2.3---- 8.3------------
1994-07-09 14.9 17.8 10.4 10.0 90.8- 7.7 3.3---- 0.6------------
1994-07-08 15.0 24.1 13.5 13.3 96.5- 8.0 2.3---- 20.2------------
1994-07-07 19.3 27.0 9.5 6.1 62.8- 4.7 2.0---- 5.7------------
1994-07-06 19.2 25.2 9.9 6.0 64.3- 3.3 1.7---- 0.0------------
1994-07-05 19.2 25.3 9.9 8.2 60.5- 5.0 3.0---- 0.0------------
1994-07-04 20.1 27.0 12.7 8.6 61.8- 3.0 1.0---- 0.0------------
1994-07-03 19.8 26.0 10.3 6.1 54.0- 2.0 2.7---- 0.0------------
1994-07-02 18.0 24.4 8.4 4.7 67.3- 1.3 2.7---- 0.0------------
1994-07-01 17.5 22.9 10.0 7.1 72.3- 3.3 3.3---- 0.0------------
1994-06-30 21.0 27.6 18.0 18.0 75.0- 5.0 3.7---- 0.0------------
1994-06-29 24.3 31.0 16.5 12.0 70.0- 3.3 2.7---- 5.2------------
1994-06-28 22.7 29.0 14.8 11.2 68.0- 3.0 2.3---- 0.0------------
1994-06-27 23.3 29.8 16.2 12.8 71.8- 6.0 2.3---- 0.0------------
1994-06-26 21.3 30.6 8.2 4.3 62.5- 2.0 2.7---- 0.0------------
1994-06-25 16.1 22.4 3.9 0.9 63.3- 1.0 2.0---- 0.0------------
1994-06-24 14.2 19.4 7.9 6.9 66.8- 3.3 5.7---- 0.0------------
1994-06-23 15.7 22.0 12.0 9.5 61.5- 4.7 7.3---- 0.0------------
1994-06-22 18.8 25.0 12.5 10.0 73.5- 6.3 4.7---- 0.0------------
1994-06-21 15.0 20.9 6.3 3.1 72.8- 3.0 2.3---- 0.0------------
1994-06-20 15.6 17.4 12.5 11.6 70.5- 3.3 3.7---- 0.0------------
1994-06-19 14.4 19.1 11.4 11.7 90.0- 8.0 3.3---- 0.9------------
1994-06-18 11.7 17.6 4.5 2.6 82.5- 6.3 2.7---- 6.0------------
1994-06-17 10.6 15.4 7.1 6.8 79.3- 5.0 4.0---- 1.8------------
1994-06-16 11.4 15.3 9.2 6.6 83.3- 6.3 5.3---- 1.9------------
208.1 ms

 

Źródłem pochodzenia danych jest Instytut Meteorologii i Gospodarki Wodnej – Państwowy Instytut Badawczy. Dane Instytutu Meteorologii i Gospodarki Wodnej – Państwowego Instytutu Badawczego zostały przetworzone.

Dane źródłowe można odnaleźć na stronie https://dane.imgw.pl